createdAt,value
2023-01-15T00:01:06.807Z,100.00
2023-01-15T00:04:12.412Z,71.68
2023-01-15T00:07:15.618Z,62.03
2023-01-15T00:10:19.448Z,77.85
2023-01-15T00:13:22.934Z,290.95
2023-01-15T00:16:27.704Z,365.73
2023-01-15T00:19:31.044Z,93.32
2023-01-15T00:22:34.543Z,120.90
2023-01-15T00:25:56.156Z,149.37
2023-01-15T00:28:59.930Z,64.75
2023-01-15T00:32:06.301Z,141.85
2023-01-15T00:35:21.084Z,214.18
2023-01-15T00:38:25.032Z,122.97
2023-01-15T00:41:29.182Z,105.70
2023-01-15T00:44:33.694Z,63.60
2023-01-15T00:47:39.213Z,62.30
2023-01-15T00:50:42.487Z,56.03
2023-01-15T00:53:45.739Z,56.80
2023-01-15T00:56:49.071Z,96.90
2023-01-15T00:59:52.916Z,71.72
2023-01-15T01:02:57.388Z,32.75
2023-01-15T01:06:02.668Z,48.97
2023-01-15T01:09:06.127Z,52.95
2023-01-15T01:12:09.904Z,45.65
2023-01-15T01:15:13.097Z,41.10
2023-01-15T01:18:16.553Z,59.87
2023-01-15T01:21:20.373Z,62.40
2023-01-15T01:24:24.930Z,46.42
2023-01-15T01:27:28.237Z,52.50
2023-01-15T01:30:38.577Z,39.97
2023-01-15T01:33:41.624Z,53.95
2023-01-15T01:36:45.369Z,44.58
2023-01-15T01:39:49.011Z,53.47
2023-01-15T01:42:53.967Z,53.85
2023-01-15T01:45:57.322Z,51.35
2023-01-15T01:49:14.247Z,45.07
2023-01-15T01:52:43.842Z,46.67
2023-01-15T01:55:50.542Z,45.22
2023-01-15T01:58:55.485Z,45.43
2023-01-15T02:02:01.112Z,38.67
2023-01-15T02:05:05.982Z,42.83
2023-01-15T02:08:10.316Z,44.83
2023-01-15T02:11:19.331Z,41.67
2023-01-15T02:14:37.291Z,38.55
2023-01-15T02:18:03.333Z,37.15
2023-01-15T02:21:17.252Z,37.17
2023-01-15T02:24:39.939Z,39.60
2023-01-15T02:27:52.867Z,30.88
2023-01-15T02:31:11.036Z,37.43
2023-01-15T02:34:27.843Z,40.55
2023-01-15T02:37:35.003Z,38.08
2023-01-15T02:40:43.025Z,39.00
2023-01-15T02:43:54.313Z,40.67
2023-01-15T02:47:00.803Z,43.42
2023-01-15T02:50:11.269Z,42.75
2023-01-15T02:53:21.653Z,34.90
2023-01-15T02:56:29.530Z,40.92
2023-01-15T02:59:40.872Z,39.53
2023-01-15T03:02:59.225Z,36.73
2023-01-15T03:06:14.988Z,34.03
2023-01-15T03:09:19.218Z,40.00
2023-01-15T03:12:29.603Z,37.83
2023-01-15T03:15:57.359Z,34.40
2023-01-15T03:19:16.769Z,34.20
2023-01-15T03:22:31.437Z,36.75
2023-01-15T03:25:40.555Z,34.13
2023-01-15T03:28:45.878Z,42.40
2023-01-15T03:31:50.164Z,35.70
2023-01-15T03:34:56.909Z,34.23
2023-01-15T03:38:01.618Z,37.25
2023-01-15T03:41:25.125Z,37.05
2023-01-15T03:45:00.750Z,37.92
2023-01-15T03:48:32.491Z,33.20
2023-01-15T03:52:01.566Z,31.75
2023-01-15T03:55:11.321Z,29.52
2023-01-15T03:58:30.733Z,30.13
2023-01-15T04:01:39.253Z,29.40
2023-01-15T04:04:44.973Z,30.67
2023-01-15T04:07:51.201Z,32.97
2023-01-15T04:11:00.325Z,29.00
2023-01-15T04:14:04.765Z,32.38
2023-01-15T04:17:08.798Z,30.70
2023-01-15T04:20:12.739Z,33.80
2023-01-15T04:23:18.080Z,30.90
2023-01-15T04:26:21.788Z,30.70
2023-01-15T04:29:26.846Z,27.77
2023-01-15T04:32:30.195Z,28.35
2023-01-15T04:35:36.250Z,31.12
2023-01-15T04:38:40.547Z,33.13
2023-01-15T04:42:03.826Z,28.67
2023-01-15T04:45:07.453Z,29.63
2023-01-15T04:48:12.782Z,29.95
2023-01-15T04:51:16.983Z,30.10
2023-01-15T04:54:22.275Z,34.25
2023-01-15T04:57:25.383Z,32.58
2023-01-15T05:00:29.518Z,32.63
2023-01-15T05:03:32.667Z,33.30
2023-01-15T05:06:36.291Z,20.98
2023-01-15T05:09:40.710Z,28.20
2023-01-15T05:12:44.239Z,38.03
2023-01-15T05:15:48.657Z,25.98
2023-01-15T05:18:56.901Z,29.90
2023-01-15T05:22:00.141Z,33.60
2023-01-15T05:25:04.865Z,26.48
2023-01-15T05:28:07.986Z,20.05
2023-01-15T05:31:17.967Z,22.83
2023-01-15T05:34:21.180Z,23.00
2023-01-15T05:37:24.726Z,26.83
2023-01-15T05:40:28.149Z,30.83
2023-01-15T05:43:32.159Z,23.08
2023-01-15T05:46:37.290Z,27.05
2023-01-15T05:49:40.871Z,16.85
2023-01-15T05:52:44.203Z,26.40
2023-01-15T05:55:47.648Z,24.25
2023-01-15T05:58:50.891Z,22.40
2023-01-15T06:01:55.396Z,24.57
2023-01-15T06:04:58.784Z,29.20
2023-01-15T06:08:01.890Z,28.35
2023-01-15T06:11:07.366Z,21.17
2023-01-15T06:14:12.731Z,22.40
2023-01-15T06:17:16.221Z,30.42
2023-01-15T06:20:20.022Z,27.48
2023-01-15T06:23:24.750Z,27.50
2023-01-15T06:26:28.263Z,31.92
2023-01-15T06:29:32.264Z,24.95
2023-01-15T06:32:35.416Z,24.23
2023-01-15T06:35:38.861Z,30.30
2023-01-15T06:38:43.169Z,26.25
2023-01-15T06:42:06.013Z,20.30
2023-01-15T06:45:29.894Z,28.08
2023-01-15T06:48:33.748Z,23.98
2023-01-15T06:51:37.120Z,25.48
2023-01-15T06:54:40.901Z,26.00
2023-01-15T06:57:44.375Z,27.58
2023-01-15T07:00:59.348Z,24.20
2023-01-15T07:04:02.626Z,26.87
2023-01-15T07:07:06.475Z,25.62
2023-01-15T07:10:11.224Z,24.92
2023-01-15T07:13:20.856Z,28.63
2023-01-15T07:16:27.793Z,35.22
2023-01-15T07:19:32.441Z,28.42
2023-01-15T07:22:35.920Z,28.83
2023-01-15T07:25:39.468Z,25.50
2023-01-15T07:28:42.668Z,21.58
2023-01-15T07:31:47.217Z,26.35
2023-01-15T07:34:51.028Z,29.43
2023-01-15T07:37:54.486Z,34.95
2023-01-15T07:41:18.711Z,30.88
2023-01-15T07:44:42.003Z,30.90
2023-01-15T07:48:03.905Z,36.20
2023-01-15T07:51:07.681Z,32.72
2023-01-15T07:54:11.885Z,30.17
2023-01-15T07:57:19.273Z,29.45
2023-01-15T08:00:25.009Z,38.22
2023-01-15T08:03:29.684Z,31.23
2023-01-15T08:06:37.495Z,26.30
2023-01-15T08:09:41.439Z,28.35
2023-01-15T08:13:03.470Z,27.13
2023-01-15T08:16:07.434Z,25.97
2023-01-15T08:19:10.677Z,31.75
2023-01-15T08:22:14.202Z,30.30
2023-01-15T08:25:20.183Z,26.60
2023-01-15T08:28:23.654Z,34.97
2023-01-15T08:31:26.775Z,29.25
2023-01-15T08:34:30.242Z,28.77
2023-01-15T08:37:33.402Z,29.97
2023-01-15T08:40:57.851Z,35.63
2023-01-15T08:44:01.619Z,35.30
2023-01-15T08:47:05.287Z,32.70
2023-01-15T08:50:09.920Z,39.47
2023-01-15T08:53:21.733Z,27.58
2023-01-15T08:56:25.015Z,30.80
2023-01-15T08:59:48.332Z,33.00
2023-01-15T09:03:11.379Z,27.52
2023-01-15T09:06:14.960Z,33.50
2023-01-15T09:09:19.100Z,31.63
2023-01-15T09:12:25.000Z,26.67
2023-01-15T09:15:29.394Z,33.38
2023-01-15T09:18:33.386Z,33.00
2023-01-15T09:21:36.610Z,29.77
2023-01-15T09:24:40.113Z,31.40
2023-01-15T09:27:43.256Z,32.83
2023-01-15T09:30:46.779Z,28.70
2023-01-15T09:33:50.414Z,31.25
2023-01-15T09:36:53.862Z,30.37
2023-01-15T09:39:57.026Z,28.80
2023-01-15T09:43:15.495Z,36.72
2023-01-15T09:46:40.379Z,24.65
2023-01-15T09:50:16.123Z,26.63
2023-01-15T09:53:37.979Z,31.75
2023-01-15T09:56:41.897Z,27.52
2023-01-15T09:59:48.144Z,23.87
2023-01-15T10:03:20.934Z,23.10
2023-01-15T10:06:27.694Z,25.45
2023-01-15T10:09:37.805Z,19.80
2023-01-15T10:12:44.869Z,25.25
2023-01-15T10:15:48.747Z,27.57
2023-01-15T10:18:53.534Z,30.17
2023-01-15T10:22:08.662Z,29.77
2023-01-15T10:25:17.681Z,24.53
2023-01-15T10:28:31.370Z,28.75
2023-01-15T10:31:49.115Z,24.85
2023-01-15T10:35:29.822Z,24.35
2023-01-15T10:39:00.260Z,18.93
2023-01-15T10:42:12.857Z,17.62
2023-01-15T10:45:24.801Z,19.20
2023-01-15T10:48:50.614Z,21.00
2023-01-15T10:52:24.212Z,22.40
2023-01-15T10:55:36.913Z,18.65
2023-01-15T10:58:46.088Z,21.40
2023-01-15T11:02:02.171Z,18.80
2023-01-15T11:05:22.660Z,20.80
2023-01-15T11:09:07.418Z,21.37
2023-01-15T11:12:19.549Z,16.65
2023-01-15T11:15:43.734Z,15.50
2023-01-15T11:19:07.074Z,17.75
2023-01-15T11:22:16.536Z,17.92
2023-01-15T11:25:31.512Z,18.42
2023-01-15T11:28:46.662Z,16.97
2023-01-15T11:31:50.319Z,16.37
2023-01-15T11:34:58.433Z,16.77
2023-01-15T11:38:15.161Z,31.33
2023-01-15T11:41:25.137Z,21.75
2023-01-15T11:44:47.327Z,16.17
2023-01-15T11:48:10.738Z,18.80
2023-01-15T11:51:16.664Z,16.62
2023-01-15T11:54:20.559Z,15.00
2023-01-15T11:57:27.246Z,16.07
2023-01-15T12:00:40.477Z,13.60
2023-01-15T12:03:45.533Z,21.15
2023-01-15T12:06:49.945Z,19.10
2023-01-15T12:10:14.029Z,21.10
2023-01-15T12:13:47.628Z,19.48
2023-01-15T12:16:53.886Z,14.60
2023-01-15T12:20:21.081Z,15.90
2023-01-15T12:23:27.463Z,20.48
2023-01-15T12:26:34.872Z,25.25
2023-01-15T12:29:46.365Z,24.12
2023-01-15T12:33:08.105Z,16.85
2023-01-15T12:36:36.369Z,19.80
2023-01-15T12:39:49.984Z,26.35
2023-01-15T12:43:13.949Z,21.70
2023-01-15T12:46:23.140Z,20.92
2023-01-15T12:49:42.507Z,18.23
2023-01-15T12:52:49.055Z,26.62
2023-01-15T12:56:11.292Z,21.17
2023-01-15T12:59:41.537Z,17.98
2023-01-15T13:02:57.080Z,24.47
2023-01-15T13:06:04.599Z,20.40
2023-01-15T13:09:45.746Z,26.02
2023-01-15T13:12:50.211Z,24.42
2023-01-15T13:16:16.984Z,20.67
2023-01-15T13:19:31.978Z,23.90
2023-01-15T13:22:54.814Z,23.10
2023-01-15T13:26:10.227Z,23.65
2023-01-15T13:29:19.739Z,25.83
2023-01-15T13:32:43.164Z,24.17
2023-01-15T13:36:01.545Z,23.30
2023-01-15T13:39:07.683Z,27.40
2023-01-15T13:42:32.775Z,20.00
2023-01-15T13:45:37.833Z,25.05
2023-01-15T13:48:45.623Z,20.62
2023-01-15T13:51:50.622Z,28.40
2023-01-15T13:54:57.273Z,26.17
2023-01-15T13:58:00.819Z,27.83
2023-01-15T14:01:35.139Z,27.77
2023-01-15T14:04:40.176Z,27.70
2023-01-15T14:07:43.510Z,27.90
2023-01-15T14:10:49.128Z,31.87
2023-01-15T14:13:55.652Z,25.27
2023-01-15T14:17:25.978Z,32.63
2023-01-15T14:20:37.238Z,25.70
2023-01-15T14:24:18.765Z,29.73
2023-01-15T14:27:49.522Z,30.62
2023-01-15T14:31:23.670Z,31.10
2023-01-15T14:34:30.623Z,33.70
2023-01-15T14:37:39.661Z,35.40
2023-01-15T14:40:59.929Z,33.42
2023-01-15T14:44:04.032Z,38.33
2023-01-15T14:47:23.411Z,36.58
2023-01-15T14:50:27.986Z,44.88
2023-01-15T14:53:38.509Z,43.65
2023-01-15T14:56:45.562Z,37.70
2023-01-15T15:00:04.630Z,35.60
2023-01-15T15:03:37.969Z,42.38
2023-01-15T15:06:54.720Z,43.87
2023-01-15T15:10:02.089Z,44.27
2023-01-15T15:13:13.483Z,41.22
2023-01-15T15:16:19.936Z,44.28
2023-01-15T15:19:44.399Z,38.33
2023-01-15T15:22:53.921Z,40.07
2023-01-15T15:26:20.307Z,40.55
2023-01-15T15:29:24.341Z,41.60
2023-01-15T15:32:28.548Z,41.13
2023-01-15T15:35:33.794Z,40.73
2023-01-15T15:38:40.579Z,42.45
2023-01-15T15:42:06.978Z,44.88
2023-01-15T15:45:38.850Z,43.35
2023-01-15T15:48:46.363Z,39.83
2023-01-15T15:51:51.819Z,45.22
2023-01-15T15:55:08.863Z,37.35
2023-01-15T15:58:23.075Z,39.67
2023-01-15T16:01:28.499Z,42.75
2023-01-15T16:04:36.683Z,42.47
2023-01-15T16:07:40.863Z,52.08
2023-01-15T16:10:49.332Z,46.00
2023-01-15T16:13:55.803Z,47.03
2023-01-15T16:16:59.627Z,44.00
2023-01-15T16:20:03.714Z,47.17
2023-01-15T16:23:24.223Z,57.27
2023-01-15T16:26:42.529Z,47.45
2023-01-15T16:29:52.012Z,43.90
2023-01-15T16:33:01.708Z,45.97
2023-01-15T16:36:08.413Z,44.40
2023-01-15T16:39:24.903Z,64.15
2023-01-15T16:42:44.182Z,68.10
2023-01-15T16:46:24.049Z,60.33
2023-01-15T16:49:31.904Z,49.67
2023-01-15T16:52:53.521Z,41.35
2023-01-15T16:56:01.655Z,49.28
2023-01-15T16:59:19.657Z,45.00
2023-01-15T17:02:30.282Z,49.47
2023-01-15T17:05:35.352Z,56.33
2023-01-15T17:08:48.719Z,51.20
2023-01-15T17:11:55.281Z,56.37
2023-01-15T17:15:21.057Z,67.80
2023-01-15T17:18:28.580Z,61.47
2023-01-15T17:21:34.201Z,66.77
2023-01-15T17:24:51.996Z,57.65
2023-01-15T17:28:00.110Z,52.38
2023-01-15T17:31:04.834Z,59.20
2023-01-15T17:34:11.888Z,54.67
2023-01-15T17:37:19.008Z,54.10
2023-01-15T17:40:25.963Z,53.30
2023-01-15T17:43:35.652Z,60.87
2023-01-15T17:46:41.265Z,62.35
2023-01-15T17:49:47.422Z,56.63
2023-01-15T17:52:52.883Z,57.35
2023-01-15T17:56:16.242Z,57.28
2023-01-15T17:59:41.212Z,58.55
2023-01-15T18:03:05.020Z,66.10
2023-01-15T18:06:16.450Z,64.60
2023-01-15T18:09:23.912Z,51.30
2023-01-15T18:12:29.655Z,53.10
2023-01-15T18:15:34.379Z,60.13
2023-01-15T18:18:39.131Z,115.12
2023-01-15T18:21:44.277Z,70.82
2023-01-15T18:24:49.240Z,61.60
2023-01-15T18:27:54.424Z,65.10
2023-01-15T18:30:59.688Z,63.78
2023-01-15T18:34:05.554Z,66.18
2023-01-15T18:37:10.737Z,70.22
2023-01-15T18:40:16.255Z,72.22
2023-01-15T18:43:40.607Z,65.87
2023-01-15T18:46:46.768Z,76.50
2023-01-15T18:49:57.087Z,69.30
2023-01-15T18:53:02.267Z,70.35
2023-01-15T18:56:09.209Z,78.90
2023-01-15T18:59:15.758Z,85.70
2023-01-15T19:02:23.515Z,90.12
2023-01-15T19:05:28.982Z,81.82
2023-01-15T19:08:34.922Z,105.65
2023-01-15T19:11:42.141Z,92.22
2023-01-15T19:15:06.741Z,99.13
2023-01-15T19:18:31.283Z,103.00
2023-01-15T19:21:38.168Z,105.33
2023-01-15T19:24:43.433Z,120.03
2023-01-15T19:27:50.196Z,119.13
2023-01-15T19:31:13.811Z,107.72
2023-01-15T19:34:33.676Z,101.65
2023-01-15T19:37:40.611Z,94.80
2023-01-15T19:40:50.911Z,87.75
2023-01-15T19:44:14.384Z,78.07
2023-01-15T19:47:46.739Z,83.32
2023-01-15T19:50:54.937Z,89.40
2023-01-15T19:54:03.921Z,82.77
2023-01-15T19:57:09.882Z,95.65
2023-01-15T20:00:19.930Z,93.37
2023-01-15T20:03:25.384Z,87.30
2023-01-15T20:06:33.385Z,88.57
2023-01-15T20:09:43.230Z,89.15
2023-01-15T20:13:06.490Z,95.72
2023-01-15T20:16:21.148Z,95.57
2023-01-15T20:19:25.835Z,97.85
2023-01-15T20:22:32.778Z,112.05
2023-01-15T20:25:38.678Z,106.30
2023-01-15T20:28:48.089Z,109.60
2023-01-15T20:31:53.220Z,111.15
2023-01-15T20:34:58.638Z,114.43
2023-01-15T20:38:03.571Z,112.50
2023-01-15T20:41:29.497Z,118.40
2023-01-15T20:44:55.868Z,123.28
2023-01-15T20:48:12.701Z,113.33
2023-01-15T20:51:20.299Z,115.10
2023-01-15T20:54:27.129Z,125.93
2023-01-15T20:57:40.550Z,127.03
2023-01-15T21:00:47.429Z,128.95
2023-01-15T21:03:52.213Z,127.97
2023-01-15T21:06:58.432Z,123.93
2023-01-15T21:10:04.387Z,120.13
2023-01-15T21:13:09.841Z,119.22
2023-01-15T21:16:15.188Z,135.60
2023-01-15T21:19:19.622Z,134.37
2023-01-15T21:22:23.785Z,118.40
2023-01-15T21:25:28.985Z,139.23
2023-01-15T21:28:33.196Z,116.45
2023-01-15T21:31:37.429Z,119.47
2023-01-15T21:34:41.700Z,125.95
2023-01-15T21:37:45.694Z,120.65
2023-01-15T21:40:49.253Z,134.40
2023-01-15T21:44:11.420Z,124.10
2023-01-15T21:47:17.797Z,118.80
2023-01-15T21:50:22.122Z,122.50
2023-01-15T21:53:25.378Z,125.53
2023-01-15T21:56:28.969Z,117.70
2023-01-15T21:59:32.312Z,120.00
2023-01-15T22:02:36.087Z,122.53
2023-01-15T22:05:39.736Z,119.50
2023-01-15T22:08:43.101Z,133.82
2023-01-15T22:11:47.062Z,128.57
2023-01-15T22:14:50.390Z,130.87
2023-01-15T22:17:54.382Z,141.85
2023-01-15T22:21:03.181Z,149.98
2023-01-15T22:24:07.201Z,154.30
2023-01-15T22:27:15.101Z,158.05
2023-01-15T22:30:18.705Z,157.02
2023-01-15T22:33:22.229Z,150.45
2023-01-15T22:36:27.305Z,165.77
2023-01-15T22:39:30.849Z,160.07
2023-01-15T22:42:34.223Z,133.52
2023-01-15T22:45:37.636Z,130.93
2023-01-15T22:48:41.128Z,151.20
2023-01-15T22:51:45.087Z,164.00
2023-01-15T22:54:48.661Z,164.53
2023-01-15T22:57:51.803Z,165.62
2023-01-15T23:00:56.230Z,188.02
2023-01-15T23:03:59.983Z,157.65
2023-01-15T23:07:03.740Z,160.63
2023-01-15T23:10:10.064Z,191.57
2023-01-15T23:13:13.863Z,179.25
2023-01-15T23:16:17.554Z,143.50
2023-01-15T23:19:21.036Z,164.50
2023-01-15T23:22:24.271Z,182.20
2023-01-15T23:25:27.745Z,189.80
2023-01-15T23:28:31.385Z,206.10
2023-01-15T23:31:35.703Z,218.88
2023-01-15T23:34:38.866Z,236.35
2023-01-15T23:37:42.612Z,273.58
2023-01-15T23:40:46.255Z,261.25
2023-01-15T23:44:08.564Z,257.58
2023-01-15T23:47:12.388Z,294.90
2023-01-15T23:50:16.063Z,362.85
2023-01-15T23:53:19.141Z,382.30
2023-01-15T23:56:22.868Z,480.53
2023-01-15T23:59:26.577Z,500.50
